createdAt,value
2023-04-29T00:01:03.751Z,100284.45
2023-04-29T00:06:06.844Z,100279.98
2023-04-29T00:11:11.043Z,100279.30
2023-04-29T00:16:13.921Z,100274.48
2023-04-29T00:21:16.710Z,100268.61
2023-04-29T00:26:19.472Z,100267.77
2023-04-29T00:31:22.239Z,100261.05
2023-04-29T00:36:26.345Z,100262.61
2023-04-29T00:41:30.889Z,100260.89
2023-04-29T00:46:33.819Z,100258.46
2023-04-29T00:51:37.769Z,100251.73
2023-04-29T00:56:43.302Z,100253.98
2023-04-29T01:01:46.881Z,100252.25
2023-04-29T01:07:11.304Z,100247.08
2023-04-29T01:12:41.303Z,100247.06
2023-04-29T01:18:23.280Z,100246.70
2023-04-29T01:23:27.329Z,100246.11
2023-04-29T01:29:12.152Z,100233.74
2023-04-29T01:34:51.947Z,100233.48
2023-04-29T01:40:10.394Z,100226.68
2023-04-29T01:45:21.384Z,100221.63
2023-04-29T01:50:24.788Z,100213.80
2023-04-29T01:55:28.014Z,100211.36
2023-04-29T02:00:30.890Z,100208.09
2023-04-29T02:05:34.517Z,100197.91
2023-04-29T02:10:37.520Z,100194.16
2023-04-29T02:15:40.280Z,100195.36
2023-04-29T02:20:43.104Z,100192.88
2023-04-29T02:25:45.871Z,100199.45
2023-04-29T02:30:48.649Z,100191.80
2023-04-29T02:35:51.483Z,100190.19
2023-04-29T02:40:54.245Z,100191.94
2023-04-29T02:45:57.673Z,100191.38
2023-04-29T02:51:00.399Z,100186.77
2023-04-29T02:56:03.314Z,100181.06
2023-04-29T03:01:06.215Z,100178.18
2023-04-29T03:06:09.016Z,100176.73
2023-04-29T03:11:11.787Z,100178.93
2023-04-29T03:16:17.049Z,100175.20
2023-04-29T03:21:19.961Z,100172.73
2023-04-29T03:26:24.523Z,100166.39
2023-04-29T03:31:27.541Z,100163.84
2023-04-29T03:36:30.454Z,100161.13
2023-04-29T03:41:33.247Z,100162.02
2023-04-29T03:46:36.178Z,100161.65
2023-04-29T03:51:39.226Z,100159.52
2023-04-29T03:56:42.029Z,100156.71
2023-04-29T04:01:44.818Z,100159.10
2023-04-29T04:06:51.789Z,100161.12
2023-04-29T04:11:54.611Z,100160.19
2023-04-29T04:16:57.372Z,100159.92
2023-04-29T04:22:00.117Z,100155.71
2023-04-29T04:27:02.843Z,100146.82
2023-04-29T04:32:06.074Z,100154.20
2023-04-29T04:37:08.837Z,100155.67
2023-04-29T04:42:11.613Z,100159.40
2023-04-29T04:47:14.436Z,100158.21
2023-04-29T04:52:20.480Z,100158.88
2023-04-29T04:57:23.237Z,100157.43
2023-04-29T05:02:26.261Z,100157.59
2023-04-29T05:07:29.214Z,100163.02
2023-04-29T05:12:32.608Z,100163.14
2023-04-29T05:17:36.601Z,100162.89
2023-04-29T05:22:39.542Z,100165.48
2023-04-29T05:27:42.242Z,100162.33
2023-04-29T05:32:54.340Z,100156.58
2023-04-29T05:37:57.115Z,100155.80
2023-04-29T05:43:00.001Z,100155.83
2023-04-29T05:48:02.839Z,100153.93
2023-04-29T05:53:05.670Z,100147.69
2023-04-29T05:58:08.382Z,100141.53
2023-04-29T06:03:12.384Z,100140.32
2023-04-29T06:08:15.464Z,100137.33
2023-04-29T06:13:19.475Z,100133.95
2023-04-29T06:18:22.261Z,100139.48
2023-04-29T06:23:25.032Z,100136.03
2023-04-29T06:28:28.926Z,100133.39
2023-04-29T06:33:34.197Z,100138.55
2023-04-29T06:38:36.999Z,100135.56
2023-04-29T06:43:39.815Z,100137.23
2023-04-29T06:48:42.987Z,100138.95
2023-04-29T06:53:46.736Z,100137.49
2023-04-29T06:58:49.484Z,100134.14
2023-04-29T07:03:52.556Z,100130.52
2023-04-29T07:08:57.013Z,100127.53
2023-04-29T07:14:00.017Z,100129.33
2023-04-29T07:19:02.850Z,100131.34
2023-04-29T07:24:05.860Z,100136.87
2023-04-29T07:29:08.492Z,100137.73
2023-04-29T07:34:11.290Z,100138.92
2023-04-29T07:39:15.602Z,100141.52
2023-04-29T07:44:18.346Z,100141.02
2023-04-29T07:49:21.084Z,100139.71
2023-04-29T07:54:24.090Z,100141.55
2023-04-29T07:59:27.306Z,100137.88
2023-04-29T08:04:30.264Z,100137.52
2023-04-29T08:09:33.354Z,100141.34
2023-04-29T08:14:36.420Z,100141.56
2023-04-29T08:19:39.077Z,100144.83
2023-04-29T08:24:42.958Z,100142.66
2023-04-29T08:29:45.710Z,100141.80
2023-04-29T08:34:49.584Z,100135.27
2023-04-29T08:39:52.452Z,100135.10
2023-04-29T08:44:55.498Z,100128.96
2023-04-29T08:50:04.902Z,100124.74
2023-04-29T08:55:08.532Z,100121.88
2023-04-29T09:00:12.325Z,100117.30
2023-04-29T09:05:15.475Z,100116.76
2023-04-29T09:10:18.819Z,100110.23
2023-04-29T09:15:21.531Z,100113.39
2023-04-29T09:20:24.241Z,100115.58
2023-04-29T09:25:27.930Z,100116.08
2023-04-29T09:30:30.771Z,100116.48
2023-04-29T09:35:33.514Z,100119.80
2023-04-29T09:40:50.268Z,100118.52
2023-04-29T09:45:59.620Z,100115.70
2023-04-29T09:51:03.696Z,100112.04
2023-04-29T09:56:07.386Z,100104.40
2023-04-29T10:01:13.344Z,100102.89
2023-04-29T10:06:17.190Z,100095.63
2023-04-29T10:11:20.683Z,100090.86
2023-04-29T10:16:31.818Z,100082.82
2023-04-29T10:21:35.020Z,100084.16
2023-04-29T10:26:39.293Z,100075.63
2023-04-29T10:31:44.482Z,100072.98
2023-04-29T10:36:48.251Z,100067.47
2023-04-29T10:41:51.708Z,100065.38
2023-04-29T10:47:21.183Z,100057.98
2023-04-29T10:52:24.077Z,100061.73
2023-04-29T10:57:26.884Z,100056.02
2023-04-29T11:02:29.770Z,100052.30
2023-04-29T11:07:32.648Z,100046.65
2023-04-29T11:12:35.509Z,100042.16
2023-04-29T11:17:38.825Z,100035.53
2023-04-29T11:22:50.968Z,100037.92
2023-04-29T11:27:56.853Z,100033.02
2023-04-29T11:32:59.754Z,100030.48
2023-04-29T11:38:04.196Z,100016.39
2023-04-29T11:43:06.968Z,100016.02
2023-04-29T11:48:10.058Z,100017.73
2023-04-29T11:53:12.844Z,100016.48
2023-04-29T11:58:18.487Z,100017.34
2023-04-29T12:03:21.874Z,100011.27
2023-04-29T12:08:26.699Z,100012.94
2023-04-29T12:13:30.948Z,100007.94
2023-04-29T12:18:34.605Z,100006.48
2023-04-29T12:23:37.597Z,100003.02
2023-04-29T12:28:43.456Z,99993.17
2023-04-29T12:33:46.289Z,99992.34
2023-04-29T12:38:49.707Z,99995.25
2023-04-29T12:43:52.629Z,99990.77
2023-04-29T12:48:55.410Z,99986.70
2023-04-29T12:54:00.011Z,99982.79
2023-04-29T12:59:10.189Z,99983.42
2023-04-29T13:04:13.334Z,99976.77
2023-04-29T13:09:18.957Z,99971.74
2023-04-29T13:14:22.289Z,99965.55
2023-04-29T13:19:43.278Z,99964.48
2023-04-29T13:24:47.883Z,99960.85
2023-04-29T13:29:50.703Z,99951.73
2023-04-29T13:34:53.938Z,99949.21
2023-04-29T13:39:57.595Z,99944.37
2023-04-29T13:45:00.706Z,99944.15
2023-04-29T14:00:38.022Z,99928.00
2023-04-29T14:05:39.581Z,99922.98
2023-04-29T14:10:42.723Z,99917.40
2023-04-29T14:15:45.577Z,99915.92
2023-04-29T14:20:48.376Z,99913.74
2023-04-29T14:25:52.425Z,99912.66
2023-04-29T14:30:57.057Z,99909.04
2023-04-29T14:36:01.096Z,99902.00
2023-04-29T14:41:04.162Z,99898.17
2023-04-29T14:46:07.201Z,99896.77
2023-04-29T14:51:10.175Z,99894.02
2023-04-29T14:56:12.950Z,99885.52
2023-04-29T15:01:15.702Z,99883.90
2023-04-29T15:06:18.627Z,99883.60
2023-04-29T15:11:21.763Z,99879.80
2023-04-29T15:16:24.832Z,99878.48
2023-04-29T15:21:28.202Z,99881.92
2023-04-29T15:26:32.812Z,99877.45
2023-04-29T15:31:35.809Z,99874.38
2023-04-29T15:36:38.604Z,99873.03
2023-04-29T15:41:41.399Z,99874.20
2023-04-29T15:46:44.150Z,99871.99
2023-04-29T15:51:46.924Z,99868.52
2023-04-29T15:56:50.996Z,99870.92
2023-04-29T16:01:53.772Z,99873.52
2023-04-29T16:06:56.790Z,99873.30
2023-04-29T16:11:59.586Z,99874.48
2023-04-29T16:17:02.595Z,99877.80
2023-04-29T16:22:06.107Z,99878.60
2023-04-29T16:27:08.905Z,99879.07
2023-04-29T16:32:11.595Z,99887.45
2023-04-29T16:37:14.354Z,99894.52
2023-04-29T16:42:17.935Z,99900.13
2023-04-29T16:47:20.804Z,99899.65
2023-04-29T16:52:24.257Z,99893.52
2023-04-29T16:57:28.232Z,99898.99
2023-04-29T17:02:31.450Z,99905.84
2023-04-29T17:07:34.479Z,99911.63
2023-04-29T17:12:37.585Z,99918.95
2023-04-29T17:17:40.420Z,99925.53
2023-04-29T17:22:43.182Z,99931.19
2023-04-29T17:27:46.208Z,99931.85
2023-04-29T17:32:49.988Z,99934.41
2023-04-29T17:37:52.908Z,99931.02
2023-04-29T17:42:55.692Z,99934.73
2023-04-29T17:47:58.485Z,99928.13
2023-04-29T17:53:01.250Z,99928.16
2023-04-29T17:58:04.008Z,99923.10
2023-04-29T18:03:06.885Z,99928.09
2023-04-29T18:08:09.703Z,99919.69
2023-04-29T18:13:12.579Z,99921.54
2023-04-29T18:18:15.509Z,99925.32
2023-04-29T18:23:18.316Z,99930.46
2023-04-29T18:28:25.235Z,99938.90
2023-04-29T18:33:30.988Z,99945.19
2023-04-29T18:38:34.048Z,99951.75
2023-04-29T18:43:36.730Z,99955.08
2023-04-29T18:48:40.744Z,99957.78
2023-04-29T18:53:43.552Z,99958.76
2023-04-29T18:58:46.733Z,99962.80
2023-04-29T19:03:49.399Z,99962.21
2023-04-29T19:08:52.161Z,99961.42
2023-04-29T19:13:55.240Z,99966.63
2023-04-29T19:18:57.965Z,99968.28
2023-04-29T19:24:00.783Z,99967.98
2023-04-29T19:29:04.116Z,99964.02
2023-04-29T19:34:07.379Z,99960.92
2023-04-29T19:39:11.068Z,99962.90
2023-04-29T19:44:14.162Z,99970.95
2023-04-29T19:49:17.265Z,99975.88
2023-04-29T19:54:19.984Z,99978.84
2023-04-29T19:59:22.764Z,99983.38
2023-04-29T20:04:25.803Z,99990.45
2023-04-29T20:09:28.528Z,99998.58
2023-04-29T20:14:32.915Z,100008.95
2023-04-29T20:19:35.765Z,100017.36
2023-04-29T20:24:38.595Z,100015.28
2023-04-29T20:29:41.580Z,100012.64
2023-04-29T20:34:44.347Z,100011.39
2023-04-29T20:39:47.386Z,100012.83
2023-04-29T20:44:50.064Z,100014.03
2023-04-29T20:49:52.999Z,100016.98
2023-04-29T20:54:56.006Z,100016.02
2023-04-29T20:59:59.071Z,100017.90
2023-04-29T21:05:01.952Z,100026.61
2023-04-29T21:10:05.137Z,100040.23
2023-04-29T21:15:08.561Z,100048.14
2023-04-29T21:20:11.935Z,100052.67
2023-04-29T21:25:14.845Z,100050.77
2023-04-29T21:30:17.607Z,100047.70
2023-04-29T21:35:20.728Z,100048.42
2023-04-29T21:40:26.504Z,100046.20
2023-04-29T21:45:29.624Z,100042.09
2023-04-29T21:50:32.678Z,100044.63
2023-04-29T21:55:35.604Z,100049.94
2023-04-29T22:00:41.141Z,100059.51
2023-04-29T22:05:44.082Z,100057.01
2023-04-29T22:10:46.910Z,100048.81
2023-04-29T22:15:49.679Z,100044.66
2023-04-29T22:20:53.310Z,100056.58
2023-04-29T22:25:56.128Z,100072.69
2023-04-29T22:30:58.983Z,100079.09
2023-04-29T22:36:02.221Z,100077.31
2023-04-29T22:41:05.835Z,100077.58
2023-04-29T22:46:08.652Z,100084.05
2023-04-29T22:51:11.492Z,100086.42
2023-04-29T22:56:14.273Z,100082.09
2023-04-29T23:01:17.082Z,100093.05
2023-04-29T23:06:21.418Z,100103.92
2023-04-29T23:11:24.234Z,100108.31
2023-04-29T23:16:27.038Z,100107.95
2023-04-29T23:21:29.844Z,100116.13
2023-04-29T23:26:32.720Z,100120.87
2023-04-29T23:31:35.619Z,100121.91
2023-04-29T23:36:38.433Z,100123.85
2023-04-29T23:41:41.229Z,100123.69
2023-04-29T23:46:44.130Z,100129.09
2023-04-29T23:51:47.141Z,100130.56
2023-04-29T23:56:49.890Z,100133.77
